sensor_id;sensor_type;location;lat;lon;timestamp;P1;durP1;ratioP1;P2;durP2;ratioP2
13439;SDS011;6792;57.698;11.946;2023-07-09T00:02:04;7.17;;;4.53;;
13439;SDS011;6792;57.698;11.946;2023-07-09T00:04:35;5.50;;;3.35;;
13439;SDS011;6792;57.698;11.946;2023-07-09T00:07:05;4.25;;;3.55;;
13439;SDS011;6792;57.698;11.946;2023-07-09T00:09:38;6.30;;;3.45;;
13439;SDS011;6792;57.698;11.946;2023-07-09T00:12:08;6.65;;;3.17;;
13439;SDS011;6792;57.698;11.946;2023-07-09T00:14:40;5.42;;;3.17;;
13439;SDS011;6792;57.698;11.946;2023-07-09T00:17:10;5.42;;;2.90;;
13439;SDS011;6792;57.698;11.946;2023-07-09T00:19:41;4.42;;;3.08;;
13439;SDS011;6792;57.698;11.946;2023-07-09T00:22:14;5.17;;;3.42;;
13439;SDS011;6792;57.698;11.946;2023-07-09T00:24:44;6.60;;;4.20;;
13439;SDS011;6792;57.698;11.946;2023-07-09T00:27:17;5.65;;;3.35;;
13439;SDS011;6792;57.698;11.946;2023-07-09T00:29:47;6.67;;;3.58;;
13439;SDS011;6792;57.698;11.946;2023-07-09T00:32:19;4.72;;;3.42;;
13439;SDS011;6792;57.698;11.946;2023-07-09T00:34:48;5.40;;;3.27;;
13439;SDS011;6792;57.698;11.946;2023-07-09T00:37:20;5.35;;;3.35;;
13439;SDS011;6792;57.698;11.946;2023-07-09T00:39:52;3.70;;;2.98;;
13439;SDS011;6792;57.698;11.946;2023-07-09T00:42:21;7.72;;;3.67;;
13439;SDS011;6792;57.698;11.946;2023-07-09T00:44:51;8.43;;;4.25;;
13439;SDS011;6792;57.698;11.946;2023-07-09T00:47:26;9.05;;;4.25;;
13439;SDS011;6792;57.698;11.946;2023-07-09T00:50:08;6.72;;;3.87;;
13439;SDS011;6792;57.698;11.946;2023-07-09T00:52:42;6.33;;;4.05;;
13439;SDS011;6792;57.698;11.946;2023-07-09T00:55:15;7.97;;;4.12;;
13439;SDS011;6792;57.698;11.946;2023-07-09T00:57:47;7.35;;;3.90;;
13439;SDS011;6792;57.698;11.946;2023-07-09T01:00:24;6.28;;;4.28;;
13439;SDS011;6792;57.698;11.946;2023-07-09T01:02:56;6.17;;;3.95;;
13439;SDS011;6792;57.698;11.946;2023-07-09T01:05:27;4.42;;;3.62;;
13439;SDS011;6792;57.698;11.946;2023-07-09T01:07:56;6.22;;;3.65;;
13439;SDS011;6792;57.698;11.946;2023-07-09T01:10:25;6.30;;;3.90;;
13439;SDS011;6792;57.698;11.946;2023-07-09T01:12:55;7.70;;;3.75;;
13439;SDS011;6792;57.698;11.946;2023-07-09T01:15:25;5.87;;;3.42;;
13439;SDS011;6792;57.698;11.946;2023-07-09T01:17:54;7.22;;;3.72;;
13439;SDS011;6792;57.698;11.946;2023-07-09T01:20:23;4.00;;;3.25;;
13439;SDS011;6792;57.698;11.946;2023-07-09T01:22:54;5.75;;;3.17;;
13439;SDS011;6792;57.698;11.946;2023-07-09T01:25:25;6.37;;;3.92;;
13439;SDS011;6792;57.698;11.946;2023-07-09T01:27:56;11.38;;;3.77;;
13439;SDS011;6792;57.698;11.946;2023-07-09T01:30:27;6.58;;;3.35;;
13439;SDS011;6792;57.698;11.946;2023-07-09T01:32:58;6.22;;;3.10;;
13439;SDS011;6792;57.698;11.946;2023-07-09T01:35:29;6.40;;;3.25;;
13439;SDS011;6792;57.698;11.946;2023-07-09T01:38:01;6.67;;;3.83;;
13439;SDS011;6792;57.698;11.946;2023-07-09T01:40:32;8.85;;;3.22;;
13439;SDS011;6792;57.698;11.946;2023-07-09T01:43:02;7.45;;;3.95;;
13439;SDS011;6792;57.698;11.946;2023-07-09T01:45:34;6.70;;;3.80;;
13439;SDS011;6792;57.698;11.946;2023-07-09T01:48:04;8.38;;;3.80;;
13439;SDS011;6792;57.698;11.946;2023-07-09T01:50:37;5.95;;;3.85;;
13439;SDS011;6792;57.698;11.946;2023-07-09T01:53:08;5.75;;;3.50;;
13439;SDS011;6792;57.698;11.946;2023-07-09T01:55:38;7.10;;;3.80;;
13439;SDS011;6792;57.698;11.946;2023-07-09T01:58:07;10.90;;;3.60;;
13439;SDS011;6792;57.698;11.946;2023-07-09T02:00:37;4.03;;;3.15;;
13439;SDS011;6792;57.698;11.946;2023-07-09T02:03:07;4.72;;;3.50;;
13439;SDS011;6792;57.698;11.946;2023-07-09T02:05:37;5.55;;;3.33;;
13439;SDS011;6792;57.698;11.946;2023-07-09T02:08:06;7.70;;;4.20;;
13439;SDS011;6792;57.698;11.946;2023-07-09T02:10:35;5.95;;;3.58;;
13439;SDS011;6792;57.698;11.946;2023-07-09T02:13:04;6.67;;;4.00;;
13439;SDS011;6792;57.698;11.946;2023-07-09T02:15:34;9.68;;;4.10;;
13439;SDS011;6792;57.698;11.946;2023-07-09T02:18:03;6.40;;;4.08;;
13439;SDS011;6792;57.698;11.946;2023-07-09T02:20:32;6.00;;;4.30;;
13439;SDS011;6792;57.698;11.946;2023-07-09T02:23:02;8.33;;;4.05;;
13439;SDS011;6792;57.698;11.946;2023-07-09T02:25:31;5.80;;;3.67;;
13439;SDS011;6792;57.698;11.946;2023-07-09T02:28:00;6.40;;;4.00;;
13439;SDS011;6792;57.698;11.946;2023-07-09T02:30:30;5.03;;;3.62;;
13439;SDS011;6792;57.698;11.946;2023-07-09T02:32:59;5.80;;;3.67;;
13439;SDS011;6792;57.698;11.946;2023-07-09T02:35:28;7.20;;;4.30;;
13439;SDS011;6792;57.698;11.946;2023-07-09T02:37:57;7.62;;;4.15;;
13439;SDS011;6792;57.698;11.946;2023-07-09T02:40:27;6.87;;;4.00;;
13439;SDS011;6792;57.698;11.946;2023-07-09T02:42:56;5.65;;;3.80;;
13439;SDS011;6792;57.698;11.946;2023-07-09T02:45:25;5.28;;;3.90;;
13439;SDS011;6792;57.698;11.946;2023-07-09T02:47:54;6.05;;;4.00;;
13439;SDS011;6792;57.698;11.946;2023-07-09T02:50:23;7.12;;;4.20;;
13439;SDS011;6792;57.698;11.946;2023-07-09T02:52:53;8.10;;;4.42;;
13439;SDS011;6792;57.698;11.946;2023-07-09T02:55:21;7.15;;;4.33;;
13439;SDS011;6792;57.698;11.946;2023-07-09T02:57:50;8.03;;;4.42;;
13439;SDS011;6792;57.698;11.946;2023-07-09T03:00:20;7.05;;;4.50;;
13439;SDS011;6792;57.698;11.946;2023-07-09T03:02:49;6.05;;;4.25;;
13439;SDS011;6792;57.698;11.946;2023-07-09T03:05:18;7.87;;;4.12;;
13439;SDS011;6792;57.698;11.946;2023-07-09T03:07:48;5.90;;;4.25;;
13439;SDS011;6792;57.698;11.946;2023-07-09T03:10:17;7.83;;;4.47;;
13439;SDS011;6792;57.698;11.946;2023-07-09T03:12:46;7.50;;;4.03;;
13439;SDS011;6792;57.698;11.946;2023-07-09T03:15:15;8.55;;;4.67;;
13439;SDS011;6792;57.698;11.946;2023-07-09T03:17:45;5.50;;;3.77;;
13439;SDS011;6792;57.698;11.946;2023-07-09T03:20:14;5.67;;;4.10;;
13439;SDS011;6792;57.698;11.946;2023-07-09T03:22:44;6.70;;;4.08;;
13439;SDS011;6792;57.698;11.946;2023-07-09T03:25:13;5.25;;;4.05;;
13439;SDS011;6792;57.698;11.946;2023-07-09T03:27:43;6.12;;;4.35;;
13439;SDS011;6792;57.698;11.946;2023-07-09T03:30:14;6.28;;;4.37;;
13439;SDS011;6792;57.698;11.946;2023-07-09T03:32:43;7.37;;;4.17;;
13439;SDS011;6792;57.698;11.946;2023-07-09T03:35:14;5.55;;;4.12;;
13439;SDS011;6792;57.698;11.946;2023-07-09T03:37:43;6.37;;;4.05;;
13439;SDS011;6792;57.698;11.946;2023-07-09T03:40:13;7.97;;;4.45;;
13439;SDS011;6792;57.698;11.946;2023-07-09T03:42:49;7.28;;;4.45;;
13439;SDS011;6792;57.698;11.946;2023-07-09T03:45:20;6.58;;;4.45;;
13439;SDS011;6792;57.698;11.946;2023-07-09T03:47:50;7.05;;;4.60;;
13439;SDS011;6792;57.698;11.946;2023-07-09T03:50:19;7.40;;;4.97;;
13439;SDS011;6792;57.698;11.946;2023-07-09T03:52:49;6.67;;;4.30;;
13439;SDS011;6792;57.698;11.946;2023-07-09T03:55:18;9.65;;;4.70;;
13439;SDS011;6792;57.698;11.946;2023-07-09T03:57:48;6.92;;;4.35;;
13439;SDS011;6792;57.698;11.946;2023-07-09T04:00:18;7.00;;;4.25;;
13439;SDS011;6792;57.698;11.946;2023-07-09T04:02:48;6.25;;;4.53;;
13439;SDS011;6792;57.698;11.946;2023-07-09T04:05:17;6.87;;;3.95;;
13439;SDS011;6792;57.698;11.946;2023-07-09T04:07:47;8.23;;;4.55;;
13439;SDS011;6792;57.698;11.946;2023-07-09T04:10:16;8.50;;;4.28;;
13439;SDS011;6792;57.698;11.946;2023-07-09T04:12:46;6.33;;;4.00;;
13439;SDS011;6792;57.698;11.946;2023-07-09T04:15:15;5.00;;;3.62;;
13439;SDS011;6792;57.698;11.946;2023-07-09T04:17:45;7.20;;;4.33;;
13439;SDS011;6792;57.698;11.946;2023-07-09T04:20:14;5.45;;;4.00;;
13439;SDS011;6792;57.698;11.946;2023-07-09T04:22:44;5.45;;;3.98;;
13439;SDS011;6792;57.698;11.946;2023-07-09T04:25:13;6.00;;;3.95;;
13439;SDS011;6792;57.698;11.946;2023-07-09T04:27:43;6.35;;;3.95;;
13439;SDS011;6792;57.698;11.946;2023-07-09T04:30:14;6.50;;;3.95;;
13439;SDS011;6792;57.698;11.946;2023-07-09T04:32:43;8.15;;;3.65;;
13439;SDS011;6792;57.698;11.946;2023-07-09T04:35:14;4.40;;;3.85;;
13439;SDS011;6792;57.698;11.946;2023-07-09T04:37:43;8.33;;;4.12;;
13439;SDS011;6792;57.698;11.946;2023-07-09T04:40:13;6.25;;;3.75;;
13439;SDS011;6792;57.698;11.946;2023-07-09T04:42:42;5.20;;;4.10;;
13439;SDS011;6792;57.698;11.946;2023-07-09T04:45:12;5.40;;;4.00;;
13439;SDS011;6792;57.698;11.946;2023-07-09T04:47:42;5.20;;;3.80;;
13439;SDS011;6792;57.698;11.946;2023-07-09T04:50:11;4.92;;;3.90;;
13439;SDS011;6792;57.698;11.946;2023-07-09T04:52:40;8.65;;;3.60;;
13439;SDS011;6792;57.698;11.946;2023-07-09T04:55:09;10.70;;;4.05;;
13439;SDS011;6792;57.698;11.946;2023-07-09T04:57:39;8.53;;;3.65;;
13439;SDS011;6792;57.698;11.946;2023-07-09T05:00:09;5.33;;;3.67;;
13439;SDS011;6792;57.698;11.946;2023-07-09T05:02:40;7.22;;;3.85;;
13439;SDS011;6792;57.698;11.946;2023-07-09T05:05:09;7.42;;;3.58;;
13439;SDS011;6792;57.698;11.946;2023-07-09T05:07:38;4.55;;;3.83;;
13439;SDS011;6792;57.698;11.946;2023-07-09T05:10:08;7.03;;;3.47;;
13439;SDS011;6792;57.698;11.946;2023-07-09T05:12:47;6.08;;;3.42;;
13439;SDS011;6792;57.698;11.946;2023-07-09T05:15:17;5.25;;;3.95;;
13439;SDS011;6792;57.698;11.946;2023-07-09T05:17:47;5.97;;;3.80;;
13439;SDS011;6792;57.698;11.946;2023-07-09T05:20:17;7.60;;;3.37;;
13439;SDS011;6792;57.698;11.946;2023-07-09T05:22:47;4.50;;;3.77;;
13439;SDS011;6792;57.698;11.946;2023-07-09T05:25:17;8.00;;;3.92;;
13439;SDS011;6792;57.698;11.946;2023-07-09T05:27:46;4.78;;;3.62;;
13439;SDS011;6792;57.698;11.946;2023-07-09T05:30:16;5.08;;;3.80;;
13439;SDS011;6792;57.698;11.946;2023-07-09T05:32:45;6.35;;;4.00;;
13439;SDS011;6792;57.698;11.946;2023-07-09T05:35:15;7.85;;;3.60;;
13439;SDS011;6792;57.698;11.946;2023-07-09T05:37:44;7.35;;;4.40;;
13439;SDS011;6792;57.698;11.946;2023-07-09T05:40:13;9.18;;;3.80;;
13439;SDS011;6792;57.698;11.946;2023-07-09T05:42:43;7.05;;;3.98;;
13439;SDS011;6792;57.698;11.946;2023-07-09T05:45:14;4.12;;;3.40;;
13439;SDS011;6792;57.698;11.946;2023-07-09T05:47:44;4.75;;;3.20;;
13439;SDS011;6792;57.698;11.946;2023-07-09T05:50:13;7.53;;;3.77;;
13439;SDS011;6792;57.698;11.946;2023-07-09T05:52:42;7.33;;;3.70;;
13439;SDS011;6792;57.698;11.946;2023-07-09T05:55:12;4.97;;;3.40;;
13439;SDS011;6792;57.698;11.946;2023-07-09T05:57:52;6.45;;;3.33;;
13439;SDS011;6792;57.698;11.946;2023-07-09T06:00:21;5.85;;;3.35;;
13439;SDS011;6792;57.698;11.946;2023-07-09T06:02:51;5.47;;;3.45;;
13439;SDS011;6792;57.698;11.946;2023-07-09T06:05:20;6.15;;;4.00;;
13439;SDS011;6792;57.698;11.946;2023-07-09T06:07:49;4.35;;;3.27;;
13439;SDS011;6792;57.698;11.946;2023-07-09T06:10:18;8.05;;;3.70;;
13439;SDS011;6792;57.698;11.946;2023-07-09T06:12:48;6.45;;;3.25;;
13439;SDS011;6792;57.698;11.946;2023-07-09T06:15:17;3.70;;;3.30;;
13439;SDS011;6792;57.698;11.946;2023-07-09T06:17:46;5.45;;;3.67;;
13439;SDS011;6792;57.698;11.946;2023-07-09T06:20:16;7.22;;;3.45;;
13439;SDS011;6792;57.698;11.946;2023-07-09T06:22:45;5.15;;;3.40;;
13439;SDS011;6792;57.698;11.946;2023-07-09T06:25:14;5.83;;;3.27;;
13439;SDS011;6792;57.698;11.946;2023-07-09T06:27:44;6.87;;;3.30;;
13439;SDS011;6792;57.698;11.946;2023-07-09T06:30:13;6.80;;;3.33;;
13439;SDS011;6792;57.698;11.946;2023-07-09T06:32:44;4.85;;;3.10;;
13439;SDS011;6792;57.698;11.946;2023-07-09T06:35:14;6.62;;;2.65;;
13439;SDS011;6792;57.698;11.946;2023-07-09T06:37:43;6.55;;;3.33;;
13439;SDS011;6792;57.698;11.946;2023-07-09T06:40:12;3.62;;;2.50;;
13439;SDS011;6792;57.698;11.946;2023-07-09T06:42:42;5.33;;;2.42;;
13439;SDS011;6792;57.698;11.946;2023-07-09T06:45:11;4.10;;;2.20;;
13439;SDS011;6792;57.698;11.946;2023-07-09T06:47:40;3.75;;;2.47;;
13439;SDS011;6792;57.698;11.946;2023-07-09T06:50:10;3.50;;;2.27;;
13439;SDS011;6792;57.698;11.946;2023-07-09T06:52:39;3.40;;;2.20;;
13439;SDS011;6792;57.698;11.946;2023-07-09T06:55:11;4.05;;;2.20;;
13439;SDS011;6792;57.698;11.946;2023-07-09T06:57:42;4.50;;;2.10;;
13439;SDS011;6792;57.698;11.946;2023-07-09T07:00:12;3.35;;;2.27;;
13439;SDS011;6792;57.698;11.946;2023-07-09T07:02:43;6.50;;;2.80;;
13439;SDS011;6792;57.698;11.946;2023-07-09T07:05:12;2.65;;;2.15;;
13439;SDS011;6792;57.698;11.946;2023-07-09T07:07:41;4.65;;;2.25;;
13439;SDS011;6792;57.698;11.946;2023-07-09T07:10:10;3.15;;;2.37;;
13439;SDS011;6792;57.698;11.946;2023-07-09T07:12:43;3.45;;;2.25;;
13439;SDS011;6792;57.698;11.946;2023-07-09T07:15:15;4.37;;;2.40;;
13439;SDS011;6792;57.698;11.946;2023-07-09T07:17:45;4.25;;;2.15;;
13439;SDS011;6792;57.698;11.946;2023-07-09T07:20:15;4.03;;;2.33;;
13439;SDS011;6792;57.698;11.946;2023-07-09T07:22:45;3.90;;;2.30;;
13439;SDS011;6792;57.698;11.946;2023-07-09T07:25:15;3.30;;;2.22;;
13439;SDS011;6792;57.698;11.946;2023-07-09T07:27:44;2.85;;;1.92;;
13439;SDS011;6792;57.698;11.946;2023-07-09T07:30:14;5.95;;;2.27;;
13439;SDS011;6792;57.698;11.946;2023-07-09T07:32:45;5.37;;;1.98;;
13439;SDS011;6792;57.698;11.946;2023-07-09T07:35:16;3.55;;;1.70;;
13439;SDS011;6792;57.698;11.946;2023-07-09T07:37:45;3.40;;;2.27;;
13439;SDS011;6792;57.698;11.946;2023-07-09T07:40:15;4.45;;;2.00;;
13439;SDS011;6792;57.698;11.946;2023-07-09T07:42:44;3.85;;;1.98;;
13439;SDS011;6792;57.698;11.946;2023-07-09T07:45:14;4.37;;;1.90;;
13439;SDS011;6792;57.698;11.946;2023-07-09T07:47:43;2.58;;;1.87;;
13439;SDS011;6792;57.698;11.946;2023-07-09T07:50:13;2.08;;;1.52;;
13439;SDS011;6792;57.698;11.946;2023-07-09T07:52:42;2.90;;;1.70;;
13439;SDS011;6792;57.698;11.946;2023-07-09T07:55:11;3.05;;;1.65;;
13439;SDS011;6792;57.698;11.946;2023-07-09T07:57:41;4.85;;;1.60;;
13439;SDS011;6792;57.698;11.946;2023-07-09T08:00:11;1.57;;;1.47;;
13439;SDS011;6792;57.698;11.946;2023-07-09T08:02:42;1.98;;;1.50;;
13439;SDS011;6792;57.698;11.946;2023-07-09T08:05:13;2.22;;;1.98;;
13439;SDS011;6792;57.698;11.946;2023-07-09T08:07:43;3.22;;;1.57;;
13439;SDS011;6792;57.698;11.946;2023-07-09T08:10:13;3.85;;;1.52;;
13439;SDS011;6792;57.698;11.946;2023-07-09T08:12:42;4.40;;;2.02;;
13439;SDS011;6792;57.698;11.946;2023-07-09T08:15:11;3.10;;;2.00;;
13439;SDS011;6792;57.698;11.946;2023-07-09T08:17:41;3.00;;;1.45;;
13439;SDS011;6792;57.698;11.946;2023-07-09T08:20:11;3.80;;;1.52;;
13439;SDS011;6792;57.698;11.946;2023-07-09T08:22:40;1.95;;;1.40;;
13439;SDS011;6792;57.698;11.946;2023-07-09T08:25:09;2.33;;;1.50;;
13439;SDS011;6792;57.698;11.946;2023-07-09T08:27:38;2.10;;;1.75;;
13439;SDS011;6792;57.698;11.946;2023-07-09T08:30:09;2.33;;;1.20;;
13439;SDS011;6792;57.698;11.946;2023-07-09T08:32:39;1.62;;;1.17;;
13439;SDS011;6792;57.698;11.946;2023-07-09T08:35:09;2.80;;;1.02;;
13439;SDS011;6792;57.698;11.946;2023-07-09T08:37:42;1.50;;;1.40;;
13439;SDS011;6792;57.698;11.946;2023-07-09T08:40:13;2.25;;;1.20;;
13439;SDS011;6792;57.698;11.946;2023-07-09T08:42:45;1.47;;;0.90;;
13439;SDS011;6792;57.698;11.946;2023-07-09T08:45:19;1.45;;;0.88;;
13439;SDS011;6792;57.698;11.946;2023-07-09T08:47:55;1.12;;;1.00;;
13439;SDS011;6792;57.698;11.946;2023-07-09T08:50:28;1.52;;;1.42;;
13439;SDS011;6792;57.698;11.946;2023-07-09T08:52:59;3.40;;;1.42;;
13439;SDS011;6792;57.698;11.946;2023-07-09T08:55:29;3.50;;;1.62;;
13439;SDS011;6792;57.698;11.946;2023-07-09T08:58:03;5.20;;;2.22;;
13439;SDS011;6792;57.698;11.946;2023-07-09T09:00:35;2.60;;;2.30;;
13439;SDS011;6792;57.698;11.946;2023-07-09T09:03:08;4.97;;;2.12;;
13439;SDS011;6792;57.698;11.946;2023-07-09T09:05:41;5.37;;;2.35;;
13439;SDS011;6792;57.698;11.946;2023-07-09T09:08:15;3.17;;;2.30;;
13439;SDS011;6792;57.698;11.946;2023-07-09T09:10:47;3.80;;;2.30;;
13439;SDS011;6792;57.698;11.946;2023-07-09T09:13:19;2.85;;;2.15;;
13439;SDS011;6792;57.698;11.946;2023-07-09T09:15:51;3.33;;;2.08;;
13439;SDS011;6792;57.698;11.946;2023-07-09T09:18:22;3.30;;;2.20;;
13439;SDS011;6792;57.698;11.946;2023-07-09T09:20:54;2.25;;;1.98;;
13439;SDS011;6792;57.698;11.946;2023-07-09T09:23:26;2.22;;;1.82;;
13439;SDS011;6792;57.698;11.946;2023-07-09T09:25:58;4.15;;;2.05;;
13439;SDS011;6792;57.698;11.946;2023-07-09T09:28:29;2.37;;;1.90;;
13439;SDS011;6792;57.698;11.946;2023-07-09T09:31:03;2.55;;;1.82;;
13439;SDS011;6792;57.698;11.946;2023-07-09T09:33:37;4.17;;;2.17;;
13439;SDS011;6792;57.698;11.946;2023-07-09T09:36:14;2.67;;;2.08;;
13439;SDS011;6792;57.698;11.946;2023-07-09T09:38:44;4.25;;;1.87;;
13439;SDS011;6792;57.698;11.946;2023-07-09T09:41:16;2.22;;;2.02;;
13439;SDS011;6792;57.698;11.946;2023-07-09T09:43:47;2.58;;;1.77;;
13439;SDS011;6792;57.698;11.946;2023-07-09T09:46:19;3.60;;;1.80;;
13439;SDS011;6792;57.698;11.946;2023-07-09T09:48:50;4.22;;;2.05;;
13439;SDS011;6792;57.698;11.946;2023-07-09T09:51:22;4.05;;;2.00;;
13439;SDS011;6792;57.698;11.946;2023-07-09T09:53:52;3.85;;;1.98;;
13439;SDS011;6792;57.698;11.946;2023-07-09T09:56:26;2.85;;;1.85;;
13439;SDS011;6792;57.698;11.946;2023-07-09T09:58:57;3.17;;;2.05;;
13439;SDS011;6792;57.698;11.946;2023-07-09T10:01:28;2.95;;;2.08;;
13439;SDS011;6792;57.698;11.946;2023-07-09T10:03:59;9.08;;;2.37;;
13439;SDS011;6792;57.698;11.946;2023-07-09T10:06:34;2.60;;;1.80;;
13439;SDS011;6792;57.698;11.946;2023-07-09T10:09:08;3.52;;;1.72;;
13439;SDS011;6792;57.698;11.946;2023-07-09T10:11:43;3.02;;;2.20;;
13439;SDS011;6792;57.698;11.946;2023-07-09T10:14:22;5.95;;;2.25;;
13439;SDS011;6792;57.698;11.946;2023-07-09T10:16:55;2.37;;;1.98;;
13439;SDS011;6792;57.698;11.946;2023-07-09T10:19:29;2.52;;;1.85;;
13439;SDS011;6792;57.698;11.946;2023-07-09T10:22:00;3.22;;;2.05;;
13439;SDS011;6792;57.698;11.946;2023-07-09T10:24:35;2.72;;;2.33;;
13439;SDS011;6792;57.698;11.946;2023-07-09T10:27:08;2.08;;;1.57;;
13439;SDS011;6792;57.698;11.946;2023-07-09T10:29:48;2.35;;;1.55;;
13439;SDS011;6792;57.698;11.946;2023-07-09T10:32:26;2.67;;;1.92;;
13439;SDS011;6792;57.698;11.946;2023-07-09T10:34:59;1.70;;;1.60;;
13439;SDS011;6792;57.698;11.946;2023-07-09T10:37:39;3.15;;;1.80;;
13439;SDS011;6792;57.698;11.946;2023-07-09T10:40:27;3.52;;;1.55;;
13439;SDS011;6792;57.698;11.946;2023-07-09T10:42:59;2.37;;;1.45;;
13439;SDS011;6792;57.698;11.946;2023-07-09T10:45:31;1.72;;;1.62;;
13439;SDS011;6792;57.698;11.946;2023-07-09T10:48:02;2.65;;;2.02;;
13439;SDS011;6792;57.698;11.946;2023-07-09T10:50:35;2.12;;;1.40;;
13439;SDS011;6792;57.698;11.946;2023-07-09T10:53:09;1.20;;;1.10;;
13439;SDS011;6792;57.698;11.946;2023-07-09T10:55:42;1.98;;;1.32;;
13439;SDS011;6792;57.698;11.946;2023-07-09T10:58:19;2.98;;;1.30;;
13439;SDS011;6792;57.698;11.946;2023-07-09T11:00:49;1.55;;;1.40;;
13439;SDS011;6792;57.698;11.946;2023-07-09T11:03:21;3.08;;;1.60;;
13439;SDS011;6792;57.698;11.946;2023-07-09T11:05:53;1.40;;;1.22;;
13439;SDS011;6792;57.698;11.946;2023-07-09T11:08:23;2.85;;;1.60;;
13439;SDS011;6792;57.698;11.946;2023-07-09T11:10:55;2.08;;;1.15;;
13439;SDS011;6792;57.698;11.946;2023-07-09T11:13:28;2.10;;;1.32;;
13439;SDS011;6792;57.698;11.946;2023-07-09T11:16:00;1.87;;;1.40;;
13439;SDS011;6792;57.698;11.946;2023-07-09T11:18:32;2.08;;;1.40;;
13439;SDS011;6792;57.698;11.946;2023-07-09T11:21:04;2.33;;;1.55;;
13439;SDS011;6792;57.698;11.946;2023-07-09T11:23:38;1.95;;;1.37;;
13439;SDS011;6792;57.698;11.946;2023-07-09T11:26:13;1.62;;;1.32;;
13439;SDS011;6792;57.698;11.946;2023-07-09T11:28:47;2.58;;;1.30;;
13439;SDS011;6792;57.698;11.946;2023-07-09T11:31:21;2.17;;;1.72;;
13439;SDS011;6792;57.698;11.946;2023-07-09T11:34:06;2.65;;;1.57;;
13439;SDS011;6792;57.698;11.946;2023-07-09T11:36:47;2.00;;;1.77;;
13439;SDS011;6792;57.698;11.946;2023-07-09T11:39:21;3.15;;;1.55;;
13439;SDS011;6792;57.698;11.946;2023-07-09T11:41:52;2.22;;;1.40;;
13439;SDS011;6792;57.698;11.946;2023-07-09T11:44:23;2.55;;;1.67;;
13439;SDS011;6792;57.698;11.946;2023-07-09T11:46:57;2.50;;;1.92;;
13439;SDS011;6792;57.698;11.946;2023-07-09T11:49:32;2.72;;;1.70;;
13439;SDS011;6792;57.698;11.946;2023-07-09T11:52:06;3.37;;;1.72;;
13439;SDS011;6792;57.698;11.946;2023-07-09T11:54:37;2.22;;;1.77;;
13439;SDS011;6792;57.698;11.946;2023-07-09T11:57:10;2.72;;;1.70;;
13439;SDS011;6792;57.698;11.946;2023-07-09T11:59:41;1.92;;;1.72;;
13439;SDS011;6792;57.698;11.946;2023-07-09T12:02:14;3.62;;;1.87;;
13439;SDS011;6792;57.698;11.946;2023-07-09T12:04:48;3.58;;;1.57;;
13439;SDS011;6792;57.698;11.946;2023-07-09T12:07:20;2.98;;;1.70;;
13439;SDS011;6792;57.698;11.946;2023-07-09T12:09:51;2.83;;;1.80;;
13439;SDS011;6792;57.698;11.946;2023-07-09T12:12:22;2.02;;;1.70;;
13439;SDS011;6792;57.698;11.946;2023-07-09T12:14:54;3.27;;;1.72;;
13439;SDS011;6792;57.698;11.946;2023-07-09T12:17:25;1.72;;;1.60;;
13439;SDS011;6792;57.698;11.946;2023-07-09T12:19:56;3.85;;;1.75;;
13439;SDS011;6792;57.698;11.946;2023-07-09T12:22:26;3.65;;;1.62;;
13439;SDS011;6792;57.698;11.946;2023-07-09T12:24:56;2.15;;;1.60;;
13439;SDS011;6792;57.698;11.946;2023-07-09T12:27:26;1.95;;;1.37;;
13439;SDS011;6792;57.698;11.946;2023-07-09T12:29:59;3.35;;;1.52;;
13439;SDS011;6792;57.698;11.946;2023-07-09T12:32:28;2.55;;;1.77;;
13439;SDS011;6792;57.698;11.946;2023-07-09T12:34:57;2.17;;;1.80;;
13439;SDS011;6792;57.698;11.946;2023-07-09T12:37:27;2.33;;;1.55;;
13439;SDS011;6792;57.698;11.946;2023-07-09T12:39:59;2.17;;;1.42;;
13439;SDS011;6792;57.698;11.946;2023-07-09T12:42:30;2.05;;;1.60;;
13439;SDS011;6792;57.698;11.946;2023-07-09T12:45:03;2.62;;;1.67;;
13439;SDS011;6792;57.698;11.946;2023-07-09T12:47:34;3.58;;;1.52;;
13439;SDS011;6792;57.698;11.946;2023-07-09T12:50:10;2.10;;;1.62;;
13439;SDS011;6792;57.698;11.946;2023-07-09T12:52:45;3.05;;;1.52;;
13439;SDS011;6792;57.698;11.946;2023-07-09T12:55:22;2.12;;;1.60;;
13439;SDS011;6792;57.698;11.946;2023-07-09T12:57:55;2.05;;;1.57;;
13439;SDS011;6792;57.698;11.946;2023-07-09T13:00:28;1.50;;;1.40;;
13439;SDS011;6792;57.698;11.946;2023-07-09T13:02:59;1.72;;;1.37;;
13439;SDS011;6792;57.698;11.946;2023-07-09T13:05:29;1.92;;;1.25;;
13439;SDS011;6792;57.698;11.946;2023-07-09T13:07:59;1.77;;;1.45;;
13439;SDS011;6792;57.698;11.946;2023-07-09T13:10:30;1.30;;;1.20;;
13439;SDS011;6792;57.698;11.946;2023-07-09T13:13:02;2.05;;;1.40;;
13439;SDS011;6792;57.698;11.946;2023-07-09T13:15:39;1.95;;;1.40;;
13439;SDS011;6792;57.698;11.946;2023-07-09T13:18:11;1.57;;;1.20;;
13439;SDS011;6792;57.698;11.946;2023-07-09T13:20:42;1.65;;;1.37;;
13439;SDS011;6792;57.698;11.946;2023-07-09T13:23:15;1.57;;;1.47;;
13439;SDS011;6792;57.698;11.946;2023-07-09T13:25:45;2.70;;;1.60;;
13439;SDS011;6792;57.698;11.946;2023-07-09T13:28:19;1.47;;;1.37;;
13439;SDS011;6792;57.698;11.946;2023-07-09T13:30:51;2.47;;;1.30;;
13439;SDS011;6792;57.698;11.946;2023-07-09T13:33:22;2.05;;;1.32;;
13439;SDS011;6792;57.698;11.946;2023-07-09T13:35:52;1.92;;;1.40;;
13439;SDS011;6792;57.698;11.946;2023-07-09T13:38:22;1.77;;;1.42;;
13439;SDS011;6792;57.698;11.946;2023-07-09T13:40:54;1.95;;;1.70;;
13439;SDS011;6792;57.698;11.946;2023-07-09T13:43:27;2.20;;;1.62;;
13439;SDS011;6792;57.698;11.946;2023-07-09T13:45:58;1.87;;;1.42;;
13439;SDS011;6792;57.698;11.946;2023-07-09T13:48:30;1.30;;;1.20;;
13439;SDS011;6792;57.698;11.946;2023-07-09T13:51:01;1.50;;;1.40;;
13439;SDS011;6792;57.698;11.946;2023-07-09T13:53:34;2.08;;;1.70;;
13439;SDS011;6792;57.698;11.946;2023-07-09T13:56:04;1.62;;;1.22;;
13439;SDS011;6792;57.698;11.946;2023-07-09T13:58:33;1.45;;;1.35;;
13439;SDS011;6792;57.698;11.946;2023-07-09T14:01:08;1.70;;;1.60;;
13439;SDS011;6792;57.698;11.946;2023-07-09T14:03:39;1.52;;;1.42;;
13439;SDS011;6792;57.698;11.946;2023-07-09T14:06:09;2.40;;;1.70;;
13439;SDS011;6792;57.698;11.946;2023-07-09T14:08:41;3.52;;;2.10;;
13439;SDS011;6792;57.698;11.946;2023-07-09T14:11:11;2.05;;;1.95;;
13439;SDS011;6792;57.698;11.946;2023-07-09T14:13:42;3.02;;;2.30;;
13439;SDS011;6792;57.698;11.946;2023-07-09T14:16:12;13.58;;;11.00;;
13439;SDS011;6792;57.698;11.946;2023-07-09T14:18:42;12.53;;;10.78;;
13439;SDS011;6792;57.698;11.946;2023-07-09T14:21:12;4.70;;;4.20;;
13439;SDS011;6792;57.698;11.946;2023-07-09T14:23:43;7.87;;;6.85;;
13439;SDS011;6792;57.698;11.946;2023-07-09T14:26:12;4.33;;;3.37;;
13439;SDS011;6792;57.698;11.946;2023-07-09T14:28:41;4.85;;;3.30;;
13439;SDS011;6792;57.698;11.946;2023-07-09T14:31:17;1.60;;;1.50;;
13439;SDS011;6792;57.698;11.946;2023-07-09T14:33:49;1.50;;;1.30;;
13439;SDS011;6792;57.698;11.946;2023-07-09T14:36:18;1.92;;;1.25;;
13439;SDS011;6792;57.698;11.946;2023-07-09T14:38:47;1.85;;;1.60;;
13439;SDS011;6792;57.698;11.946;2023-07-09T14:41:19;1.45;;;1.35;;
13439;SDS011;6792;57.698;11.946;2023-07-09T14:43:50;1.77;;;1.67;;
13439;SDS011;6792;57.698;11.946;2023-07-09T14:46:20;3.70;;;1.85;;
13439;SDS011;6792;57.698;11.946;2023-07-09T14:48:49;1.70;;;1.60;;
13439;SDS011;6792;57.698;11.946;2023-07-09T14:51:18;3.62;;;2.60;;
13439;SDS011;6792;57.698;11.946;2023-07-09T14:53:47;2.70;;;2.50;;
13439;SDS011;6792;57.698;11.946;2023-07-09T14:56:16;4.72;;;3.10;;
13439;SDS011;6792;57.698;11.946;2023-07-09T14:58:46;2.52;;;2.33;;
13439;SDS011;6792;57.698;11.946;2023-07-09T15:01:15;3.17;;;2.87;;
13439;SDS011;6792;57.698;11.946;2023-07-09T15:03:45;3.10;;;2.60;;
13439;SDS011;6792;57.698;11.946;2023-07-09T15:06:14;2.67;;;2.47;;
13439;SDS011;6792;57.698;11.946;2023-07-09T15:08:43;2.77;;;2.35;;
13439;SDS011;6792;57.698;11.946;2023-07-09T15:11:12;2.40;;;2.00;;